createdAt,value
2018-12-22T00:00:07.635Z,9.13
2018-12-22T00:01:09.019Z,9.13
2018-12-22T00:02:10.402Z,9.13
2018-12-22T00:03:11.780Z,9.06
2018-12-22T00:04:13.245Z,9.01
2018-12-22T00:05:14.657Z,9.03
2018-12-22T00:06:16.246Z,9.03
2018-12-22T00:07:17.622Z,9.01
2018-12-22T00:08:18.999Z,9.01
2018-12-22T00:09:20.545Z,9.04
2018-12-22T00:10:21.930Z,9.06
2018-12-22T00:11:23.348Z,9.03
2018-12-22T00:12:24.726Z,8.94
2018-12-22T00:13:26.102Z,8.91
2018-12-22T00:14:27.645Z,8.91
2018-12-22T00:15:29.032Z,8.98
2018-12-22T00:16:30.413Z,8.86
2018-12-22T00:17:31.798Z,8.82
2018-12-22T00:18:33.169Z,8.88
2018-12-22T00:19:34.551Z,8.88
2018-12-22T00:20:36.073Z,8.94
2018-12-22T00:21:37.448Z,8.88
2018-12-22T00:22:38.828Z,8.91
2018-12-22T00:23:40.346Z,9.06
2018-12-22T00:24:41.729Z,8.88
2018-12-22T00:25:43.105Z,8.98
2018-12-22T00:26:44.680Z,8.94
2018-12-22T00:27:46.058Z,8.91
2018-12-22T00:28:47.624Z,8.94
2018-12-22T00:29:49.000Z,8.86
2018-12-22T00:30:50.390Z,9.01
2018-12-22T00:31:51.874Z,8.93
2018-12-22T00:32:53.361Z,8.97
2018-12-22T00:33:54.582Z,8.94
2018-12-22T00:34:56.187Z,8.91
2018-12-22T00:35:57.566Z,8.88
2018-12-22T00:36:58.941Z,8.83
2018-12-22T00:38:00.437Z,8.94
2018-12-22T00:39:01.810Z,8.98
2018-12-22T00:40:03.310Z,8.94
2018-12-22T00:41:04.699Z,8.93
2018-12-22T00:42:06.077Z,8.91
2018-12-22T00:43:11.490Z,8.96
2018-12-22T00:44:12.868Z,8.93
2018-12-22T00:45:14.250Z,8.85
2018-12-22T00:46:18.122Z,8.86
2018-12-22T00:47:19.498Z,8.86
2018-12-22T00:48:20.885Z,8.83
2018-12-22T00:49:22.257Z,8.83
2018-12-22T00:50:23.585Z,8.88
2018-12-22T00:51:24.962Z,8.88
2018-12-22T00:52:26.504Z,8.86
2018-12-22T00:53:27.887Z,8.80
2018-12-22T00:54:29.252Z,8.80
2018-12-22T00:55:30.744Z,8.78
2018-12-22T00:56:32.134Z,8.73
2018-12-22T00:57:33.526Z,8.78
2018-12-22T00:58:35.084Z,8.82
2018-12-22T00:59:36.467Z,8.75
2018-12-22T01:00:37.847Z,8.65
2018-12-22T01:01:39.274Z,8.67
2018-12-22T01:02:40.656Z,8.75
2018-12-22T01:03:42.029Z,8.63
2018-12-22T01:04:43.633Z,8.63
2018-12-22T01:05:45.008Z,8.65
2018-12-22T01:06:46.479Z,8.70
2018-12-22T01:07:47.863Z,8.71
2018-12-22T01:08:49.243Z,8.68
2018-12-22T01:09:50.625Z,8.70
2018-12-22T01:10:52.012Z,8.75
2018-12-22T01:11:53.537Z,8.68
2018-12-22T01:12:54.916Z,8.68
2018-12-22T01:13:56.290Z,8.71
2018-12-22T01:14:57.807Z,8.71
2018-12-22T01:15:59.191Z,8.68
2018-12-22T01:17:00.565Z,8.61
2018-12-22T01:18:02.157Z,8.64
2018-12-22T01:19:03.536Z,8.64
2018-12-22T01:20:05.056Z,8.61
2018-12-22T01:21:06.426Z,8.65
2018-12-22T01:22:07.829Z,8.57
2018-12-22T01:23:13.418Z,8.55
2018-12-22T01:24:14.837Z,8.64
2018-12-22T01:25:16.335Z,8.52
2018-12-22T01:26:17.713Z,8.63
2018-12-22T01:27:19.093Z,8.55
2018-12-22T01:28:20.478Z,8.50
2018-12-22T01:29:21.859Z,8.42
2018-12-22T01:30:23.270Z,8.49
2018-12-22T01:31:24.658Z,8.50
2018-12-22T01:32:25.994Z,8.50
2018-12-22T01:33:27.374Z,8.45
2018-12-22T01:34:28.758Z,8.43
2018-12-22T01:35:30.138Z,8.42
2018-12-22T01:36:31.517Z,8.39
2018-12-22T01:37:32.915Z,8.39
2018-12-22T01:38:34.292Z,8.42
2018-12-22T01:39:35.681Z,8.43
2018-12-22T01:40:37.073Z,8.31
2018-12-22T01:41:38.685Z,8.42
2018-12-22T01:42:40.060Z,8.39
2018-12-22T01:43:41.435Z,8.37
2018-12-22T01:44:42.983Z,8.39
2018-12-22T01:45:44.361Z,8.32
2018-12-22T01:46:45.745Z,8.32
2018-12-22T01:47:47.119Z,8.34
2018-12-22T01:48:48.499Z,8.39
2018-12-22T01:49:49.867Z,8.36
2018-12-22T01:50:51.197Z,8.36
2018-12-22T01:51:52.576Z,8.29
2018-12-22T01:52:54.121Z,8.34
2018-12-22T01:53:55.503Z,8.36
2018-12-22T01:54:56.877Z,8.34
2018-12-22T01:55:58.581Z,8.34
2018-12-22T01:56:59.955Z,8.37
2018-12-22T01:58:01.482Z,8.31
2018-12-22T01:59:02.831Z,8.34
2018-12-22T02:00:04.216Z,8.39
2018-12-22T02:01:05.912Z,8.39
2018-12-22T02:02:07.296Z,8.32
2018-12-22T02:03:08.666Z,8.34
2018-12-22T02:04:10.046Z,8.34
2018-12-22T02:05:11.544Z,8.29
2018-12-22T02:06:12.920Z,8.34
2018-12-22T02:07:14.300Z,8.31
2018-12-22T02:08:15.781Z,8.31
2018-12-22T02:09:17.162Z,8.27
2018-12-22T02:10:18.535Z,8.27
2018-12-22T02:11:20.041Z,8.20
2018-12-22T02:12:21.423Z,8.25
2018-12-22T02:13:22.799Z,8.22
2018-12-22T02:14:24.313Z,8.24
2018-12-22T02:15:25.685Z,8.25
2018-12-22T02:16:27.097Z,8.18
2018-12-22T02:17:28.491Z,8.21
2018-12-22T02:18:29.865Z,8.13
2018-12-22T02:19:31.257Z,8.18
2018-12-22T02:20:32.639Z,8.10
2018-12-22T02:21:34.012Z,8.14
2018-12-22T02:22:35.388Z,8.17
2018-12-22T02:23:36.968Z,8.14
2018-12-22T02:24:38.347Z,8.09
2018-12-22T02:25:39.724Z,8.14
2018-12-22T02:26:41.196Z,8.12
2018-12-22T02:27:42.582Z,8.14
2018-12-22T02:28:43.963Z,8.20
2018-12-22T02:29:45.343Z,8.10
2018-12-22T02:30:46.722Z,8.18
2018-12-22T02:31:48.091Z,8.20
2018-12-22T02:32:49.466Z,8.17
2018-12-22T02:33:50.845Z,8.12
2018-12-22T02:34:52.456Z,8.14
2018-12-22T02:35:53.837Z,8.13
2018-12-22T02:36:55.171Z,8.13
2018-12-22T02:37:56.791Z,8.13
2018-12-22T02:38:59.476Z,8.09
2018-12-22T02:40:00.852Z,8.09
2018-12-22T09:51:15.909Z,5.14
2018-12-22T09:52:17.281Z,5.20
2018-12-22T09:53:18.663Z,5.23
2018-12-22T09:54:20.052Z,5.26
2018-12-22T09:55:21.425Z,5.29
2018-12-22T09:56:22.813Z,5.27
2018-12-22T09:57:24.204Z,5.24
2018-12-22T09:58:25.575Z,5.27
2018-12-22T09:59:26.949Z,5.32
2018-12-22T10:00:28.321Z,5.30
2018-12-22T10:01:29.701Z,5.33
2018-12-22T10:02:31.073Z,5.26
2018-12-22T10:03:32.449Z,5.29
2018-12-22T10:04:33.827Z,5.23
2018-12-22T10:05:35.216Z,5.22
2018-12-22T10:06:36.596Z,5.23
2018-12-22T10:07:37.994Z,5.22
2018-12-22T10:08:39.371Z,5.23
2018-12-22T10:09:40.749Z,5.27
2018-12-22T10:10:42.126Z,5.27
2018-12-22T10:11:43.511Z,5.22
2018-12-22T10:12:44.890Z,5.26
2018-12-22T10:13:46.269Z,5.27
2018-12-22T10:14:47.657Z,5.30
2018-12-22T10:15:49.035Z,5.30
2018-12-22T10:16:50.429Z,5.26
2018-12-22T10:17:51.825Z,5.27
2018-12-22T10:18:53.206Z,5.29
2018-12-22T10:19:54.595Z,5.26
2018-12-22T10:20:55.978Z,5.35
2018-12-22T10:21:57.367Z,5.35
2018-12-22T10:22:58.743Z,5.37
2018-12-22T10:24:00.133Z,5.29
2018-12-22T10:25:01.513Z,5.29
2018-12-22T10:26:02.905Z,5.30
2018-12-22T10:27:04.291Z,5.33
2018-12-22T10:28:05.680Z,5.42
2018-12-22T10:29:07.059Z,5.44
2018-12-22T10:30:08.435Z,5.44
2018-12-22T10:31:17.724Z,5.40
2018-12-22T10:32:11.164Z,5.48
2018-12-22T10:33:12.545Z,5.44
2018-12-22T10:34:13.925Z,5.44
2018-12-22T10:35:15.300Z,5.58
2018-12-22T10:36:16.708Z,5.47
2018-12-22T10:37:18.101Z,5.48
2018-12-22T10:38:19.516Z,5.48
2018-12-22T10:39:20.894Z,5.49
2018-12-22T10:40:22.272Z,5.52
2018-12-22T10:41:23.663Z,5.52
2018-12-22T10:42:25.037Z,5.58
2018-12-22T10:43:26.430Z,5.51
2018-12-22T10:44:27.825Z,5.49
2018-12-22T10:45:29.213Z,5.55
2018-12-22T10:46:30.614Z,5.41
2018-12-22T10:47:31.993Z,5.42
2018-12-22T10:48:33.381Z,5.52
2018-12-22T10:49:34.817Z,5.63
2018-12-22T10:50:36.204Z,5.51
2018-12-22T10:51:37.585Z,5.56
2018-12-22T10:52:38.968Z,5.56
2018-12-22T10:53:40.360Z,5.62
2018-12-22T10:54:41.736Z,5.55
2018-12-22T10:55:43.111Z,5.69
2018-12-22T10:56:44.496Z,5.66
2018-12-22T10:57:45.886Z,5.62
2018-12-22T10:58:47.309Z,5.75
2018-12-22T10:59:48.702Z,5.73
2018-12-22T11:00:50.078Z,5.67
2018-12-22T11:01:51.474Z,5.69
2018-12-22T11:02:52.932Z,5.67
2018-12-22T11:03:55.241Z,5.74
2018-12-22T11:04:56.661Z,5.69
2018-12-22T11:05:58.084Z,5.66
2018-12-22T11:06:59.518Z,5.74
2018-12-22T11:08:00.896Z,5.65
2018-12-22T11:09:02.313Z,5.73
2018-12-22T11:10:03.701Z,5.62
2018-12-22T11:11:05.081Z,5.67
2018-12-22T11:12:06.472Z,5.65
2018-12-22T11:13:07.906Z,5.59
2018-12-22T11:14:09.297Z,5.67
2018-12-22T11:15:10.673Z,5.67
2018-12-22T11:16:12.057Z,5.65
2018-12-22T11:17:13.443Z,5.65
2018-12-22T11:18:14.820Z,5.74
2018-12-22T11:19:16.206Z,5.60
2018-12-22T11:20:17.612Z,5.62
2018-12-22T11:21:19.000Z,5.63
2018-12-22T11:22:20.380Z,5.65
2018-12-22T11:23:21.761Z,5.63
2018-12-22T11:24:23.143Z,5.60
2018-12-22T11:25:24.534Z,5.58
2018-12-22T11:26:25.910Z,5.67
2018-12-22T11:27:27.311Z,5.60
2018-12-22T11:28:28.701Z,5.59
2018-12-22T11:29:30.085Z,5.67
2018-12-22T11:30:31.481Z,5.60
2018-12-22T11:31:35.106Z,5.59
2018-12-22T11:32:34.227Z,5.58
2018-12-22T11:33:35.605Z,5.59
2018-12-22T11:34:36.989Z,5.52
2018-12-22T11:35:38.372Z,5.65
2018-12-22T11:36:39.754Z,5.60
2018-12-22T11:37:41.142Z,5.62
2018-12-22T11:38:42.528Z,5.59
2018-12-22T11:39:43.906Z,5.62
2018-12-22T11:40:45.286Z,5.58
2018-12-22T11:41:46.673Z,5.60
2018-12-22T11:42:48.066Z,5.60
2018-12-22T11:43:49.433Z,5.62
2018-12-22T11:44:50.829Z,5.62
2018-12-22T11:45:52.202Z,5.62
2018-12-22T11:46:53.584Z,5.65
2018-12-22T11:47:54.965Z,5.62
2018-12-22T11:48:57.878Z,5.65
2018-12-22T11:50:01.160Z,5.74
2018-12-22T11:51:03.209Z,5.60
2018-12-22T11:52:06.179Z,5.63
2018-12-22T11:53:07.285Z,5.60
2018-12-22T11:54:08.687Z,5.69
2018-12-22T11:55:10.109Z,5.69
2018-12-22T11:56:11.477Z,5.62
2018-12-22T11:57:12.872Z,5.63
2018-12-22T11:58:14.245Z,5.69
2018-12-22T11:59:16.060Z,5.70
2018-12-22T12:00:17.445Z,5.69
2018-12-22T12:01:18.826Z,5.67
2018-12-22T12:02:20.213Z,5.55
2018-12-22T12:03:21.604Z,5.62
2018-12-22T12:04:22.980Z,5.65
2018-12-22T12:05:24.358Z,5.58
2018-12-22T12:06:25.740Z,5.62
2018-12-22T12:07:27.125Z,5.56
2018-12-22T12:08:28.533Z,5.58
2018-12-22T12:09:29.912Z,5.56
2018-12-22T12:10:31.296Z,5.48
2018-12-22T12:11:32.688Z,5.55
2018-12-22T12:12:34.067Z,5.49
2018-12-22T12:13:35.448Z,5.51
2018-12-22T12:14:36.863Z,5.42
2018-12-22T12:15:38.218Z,5.48
2018-12-22T12:16:39.593Z,5.55
2018-12-22T12:17:40.975Z,5.42
2018-12-22T12:18:42.355Z,5.48
2018-12-22T12:19:43.729Z,5.51
2018-12-22T12:20:45.102Z,5.55
2018-12-22T12:21:46.493Z,5.51
2018-12-22T12:22:47.868Z,5.49
2018-12-22T12:23:49.247Z,5.51
2018-12-22T12:24:50.638Z,5.52
2018-12-22T12:25:52.013Z,5.52
2018-12-22T12:26:53.402Z,5.45
2018-12-22T12:27:54.782Z,5.52
2018-12-22T12:28:56.156Z,5.52
2018-12-22T12:29:57.538Z,5.49
2018-12-22T12:30:58.922Z,5.44
2018-12-22T12:32:00.264Z,5.41
2018-12-22T12:33:01.642Z,5.41
2018-12-22T12:34:03.018Z,5.47
2018-12-22T12:35:04.402Z,5.52
2018-12-22T12:36:05.792Z,5.51
2018-12-22T12:37:07.168Z,5.59
2018-12-22T12:38:08.562Z,5.63
2018-12-22T12:39:09.952Z,5.63
2018-12-22T12:40:11.334Z,5.70
2018-12-22T12:41:12.717Z,5.70
2018-12-22T12:42:14.099Z,5.65
2018-12-22T12:43:15.614Z,5.70
2018-12-22T12:44:16.824Z,5.73
2018-12-22T12:45:18.207Z,5.74
2018-12-22T12:46:19.588Z,5.78
2018-12-22T12:47:20.985Z,5.80
2018-12-22T12:48:22.369Z,5.84
2018-12-22T12:49:23.745Z,5.77
2018-12-22T12:50:25.123Z,5.83
2018-12-22T12:51:26.500Z,5.88
2018-12-22T12:52:27.881Z,5.95
2018-12-22T12:53:29.261Z,5.96
2018-12-22T12:54:30.642Z,5.85
2018-12-22T12:55:32.022Z,5.83
2018-12-22T12:56:33.396Z,5.83
2018-12-22T12:57:34.782Z,5.88
2018-12-22T12:58:36.162Z,5.78
2018-12-22T12:59:37.547Z,5.83
2018-12-22T13:00:38.928Z,5.83
2018-12-22T13:01:40.304Z,5.83
2018-12-22T13:02:41.686Z,5.88
2018-12-22T13:03:43.075Z,5.85
2018-12-22T13:04:44.460Z,5.78
2018-12-22T13:05:45.838Z,5.78
2018-12-22T13:06:47.179Z,5.77
2018-12-22T13:07:48.589Z,5.84
2018-12-22T13:08:49.961Z,5.75
2018-12-22T13:09:51.348Z,5.83
2018-12-22T13:10:52.725Z,5.81
2018-12-22T13:11:54.114Z,5.78
2018-12-22T13:12:55.503Z,5.73
2018-12-22T13:13:56.883Z,5.74
2018-12-22T13:14:58.259Z,5.63
2018-12-22T13:15:59.640Z,5.63
2018-12-22T13:17:01.016Z,5.63
2018-12-22T13:18:02.396Z,5.70
2018-12-22T13:19:03.783Z,5.70
2018-12-22T13:20:05.166Z,5.62
2018-12-22T13:21:06.544Z,5.60
2018-12-22T13:22:07.924Z,5.60
2018-12-22T13:23:09.309Z,5.63
2018-12-22T13:24:10.698Z,5.66
2018-12-22T13:25:12.076Z,5.63
2018-12-22T13:26:13.462Z,5.60
2018-12-22T13:27:14.844Z,5.66
2018-12-22T13:28:16.280Z,5.63
2018-12-22T13:29:17.609Z,5.60
2018-12-22T13:30:18.993Z,5.60
2018-12-22T13:31:20.367Z,5.63
2018-12-22T13:32:21.758Z,5.60
2018-12-22T13:33:23.335Z,5.63
2018-12-22T13:34:24.471Z,5.65
2018-12-22T13:35:25.855Z,5.62
2018-12-22T13:36:34.284Z,5.51
2018-12-22T13:37:28.594Z,5.58
2018-12-22T13:38:29.983Z,5.49
2018-12-22T13:39:31.371Z,5.58
2018-12-22T13:40:32.747Z,5.41
2018-12-22T13:41:34.121Z,5.47
2018-12-22T13:42:35.510Z,5.44
2018-12-22T13:43:36.894Z,5.40
2018-12-22T13:44:38.268Z,5.40
2018-12-22T13:45:39.649Z,5.42
2018-12-22T13:46:41.020Z,5.41
2018-12-22T13:47:42.593Z,5.44
2018-12-22T13:48:43.867Z,5.45
2018-12-22T13:49:45.167Z,5.49
2018-12-22T13:50:46.448Z,5.45
2018-12-22T13:51:47.758Z,5.44
2018-12-22T13:52:49.140Z,5.47
2018-12-22T13:53:50.510Z,5.41
2018-12-22T13:54:51.885Z,5.41
2018-12-22T13:55:53.268Z,5.45
2018-12-22T13:56:54.644Z,5.44
2018-12-22T13:57:56.030Z,5.38
2018-12-22T13:58:57.411Z,5.45
2018-12-22T13:59:58.803Z,5.45
2018-12-22T14:01:00.184Z,5.35
2018-12-22T14:02:01.561Z,5.44
2018-12-22T14:03:02.937Z,5.44
2018-12-22T14:04:04.321Z,5.42
2018-12-22T14:05:05.695Z,5.47
2018-12-22T14:06:07.074Z,5.37
2018-12-22T14:07:08.451Z,5.42
2018-12-22T17:05:08.205Z,4.71
2018-12-22T17:06:09.586Z,4.71
2018-12-22T17:07:10.980Z,4.69
2018-12-22T17:56:34.683Z,4.79
2018-12-22T17:57:36.057Z,4.77
2018-12-22T17:58:37.429Z,4.65
2018-12-22T17:59:38.805Z,4.75
2018-12-22T18:00:40.170Z,4.74
2018-12-22T18:01:41.574Z,4.65
2018-12-22T18:02:42.947Z,4.75
2018-12-22T18:03:44.318Z,4.65
2018-12-22T18:04:45.831Z,4.72
2018-12-22T18:05:47.202Z,4.71
2018-12-22T18:06:48.577Z,4.74
2018-12-22T18:07:49.947Z,4.74
2018-12-22T18:08:51.326Z,4.71
2018-12-22T18:09:52.699Z,4.68
2018-12-22T18:10:54.083Z,4.77
2018-12-22T18:11:55.478Z,4.80
2018-12-22T18:12:56.856Z,4.84
2018-12-22T18:14:00.786Z,4.75
2018-12-22T18:15:02.792Z,4.79
2018-12-22T18:16:11.366Z,4.75
2018-12-22T18:17:12.691Z,4.79
2018-12-22T18:18:14.077Z,4.80
2018-12-22T18:19:15.453Z,4.80
2018-12-22T18:20:16.835Z,4.80
2018-12-22T18:21:18.330Z,4.84
2018-12-22T18:22:19.711Z,4.87
2018-12-22T18:23:21.088Z,4.86
2018-12-22T18:24:22.495Z,4.84
2018-12-22T18:25:23.867Z,4.97
2018-12-22T18:26:25.294Z,4.99
2018-12-22T18:27:26.739Z,4.88
2018-12-22T18:28:28.126Z,4.94
2018-12-22T18:29:29.486Z,4.96
2018-12-22T18:30:30.871Z,4.94
2018-12-22T18:31:32.265Z,4.97
2018-12-22T18:32:33.637Z,4.97
2018-12-22T18:33:36.078Z,4.97
2018-12-22T18:34:36.365Z,4.97
2018-12-22T18:35:37.751Z,4.99
2018-12-22T18:36:39.146Z,4.93
2018-12-22T18:37:40.520Z,4.99
2018-12-22T18:38:41.910Z,4.97
2018-12-22T18:39:43.515Z,4.94
2018-12-22T18:40:44.899Z,4.96
2018-12-22T18:41:46.279Z,5.04
2018-12-22T18:42:47.649Z,4.99
2018-12-22T18:43:49.045Z,5.01
2018-12-22T18:44:50.649Z,5.04
2018-12-22T18:45:52.033Z,5.05
2018-12-22T18:46:53.419Z,4.97
2018-12-22T18:47:55.045Z,4.99
2018-12-22T18:48:56.434Z,5.08
2018-12-22T18:49:57.810Z,5.09
2018-12-22T18:50:59.335Z,5.05
2018-12-22T18:52:00.716Z,5.05
2018-12-22T18:53:02.095Z,5.05
2018-12-22T18:54:03.674Z,5.12
2018-12-22T18:55:05.056Z,5.05
2018-12-22T18:56:06.442Z,5.08
2018-12-22T18:57:08.074Z,5.14
2018-12-22T18:58:09.445Z,5.15
2018-12-22T18:59:10.826Z,5.12
2018-12-22T19:00:12.157Z,5.09
2018-12-22T19:01:16.782Z,5.08
2018-12-22T19:02:18.174Z,5.19
2018-12-22T19:03:19.547Z,5.12
2018-12-22T19:04:21.891Z,5.19
2018-12-22T19:05:23.305Z,5.06
2018-12-22T19:06:24.681Z,5.09
2018-12-22T19:07:26.178Z,5.09
2018-12-22T19:08:27.561Z,5.12
2018-12-22T19:09:28.959Z,5.09
2018-12-22T19:10:30.467Z,5.11
2018-12-22T19:11:31.840Z,5.02
2018-12-22T19:12:33.232Z,5.04
2018-12-22T19:13:34.830Z,4.97
2018-12-22T19:14:36.207Z,4.93
2018-12-22T19:15:37.580Z,5.02
2018-12-22T19:16:39.110Z,5.02
2018-12-22T19:17:40.485Z,5.02
2018-12-22T19:18:41.872Z,5.01
2018-12-22T19:19:43.407Z,4.93
2018-12-22T19:20:44.784Z,5.01
2018-12-22T19:21:46.161Z,5.02
2018-12-22T19:22:47.690Z,4.96
2018-12-22T19:23:49.070Z,4.99
2018-12-22T19:24:50.445Z,5.04
2018-12-22T19:25:52.051Z,5.04
2018-12-22T19:26:53.429Z,5.05
2018-12-22T19:27:54.807Z,5.06
2018-12-22T19:28:56.202Z,5.06
2018-12-22T19:29:57.580Z,5.06
2018-12-22T19:30:58.951Z,5.09
2018-12-22T19:32:00.326Z,5.08
2018-12-22T19:33:01.717Z,5.12
2018-12-22T19:34:03.104Z,5.12
2018-12-22T19:35:04.480Z,5.14
2018-12-22T19:36:05.877Z,5.12
2018-12-22T19:37:07.271Z,5.14
2018-12-22T19:38:08.655Z,5.23
2018-12-22T19:39:10.035Z,5.15
2018-12-22T19:40:11.426Z,5.15
2018-12-22T19:41:12.817Z,5.23
2018-12-22T19:42:14.182Z,5.14
2018-12-22T19:43:15.572Z,5.08
2018-12-22T19:44:16.958Z,5.19
2018-12-22T19:45:18.338Z,5.11
2018-12-22T19:46:19.725Z,5.05
2018-12-22T19:47:21.124Z,5.09
2018-12-22T19:48:22.507Z,4.96
2018-12-22T19:49:23.879Z,5.02
2018-12-22T19:50:25.269Z,4.99
2018-12-22T19:51:27.437Z,4.99
2018-12-22T19:52:27.992Z,4.97
2018-12-22T19:53:29.370Z,5.04
2018-12-22T19:54:30.745Z,4.96
2018-12-22T19:55:32.116Z,4.99
2018-12-22T19:56:33.504Z,5.04
2018-12-22T19:57:34.879Z,4.99
2018-12-22T19:58:36.262Z,4.99
2018-12-22T19:59:38.731Z,5.02
2018-12-22T20:00:38.996Z,5.02
2018-12-22T20:01:40.375Z,4.99
2018-12-22T20:02:41.757Z,5.02
2018-12-22T20:03:43.166Z,4.99
2018-12-22T20:04:44.559Z,5.05
2018-12-22T20:05:46.030Z,5.08
2018-12-22T20:06:47.567Z,5.09
2018-12-22T20:07:48.959Z,5.12
2018-12-22T20:08:50.553Z,5.14
2018-12-22T20:09:51.902Z,5.09
2018-12-22T20:10:53.283Z,5.14
2018-12-22T20:11:54.871Z,5.15
2018-12-22T20:12:56.275Z,5.14
2018-12-22T20:13:57.653Z,5.14
2018-12-22T20:14:59.022Z,5.12
2018-12-22T20:16:08.583Z,5.04
2018-12-22T20:17:01.743Z,5.09
2018-12-22T20:18:03.138Z,5.09
2018-12-22T20:19:04.536Z,5.14
